Dayton, OH (45433)

9:15 AM EDT on July 27, 2017 (GMT -0400)
Tatooine | | Change Station

Elev 866 ft 39.80 °N, 84.01 °W | Updated 11 minutes ago

Light Rain Showers
Light Showers Rain
72.1 °F
Feels Like 71 °F
N
0.0
Wind Variable Wind from South

Today
High -- | Low -- °F
--% Chance of Precip.
Yesterday
High -- | Low -- °F
Precip. -- in
Pressure 29.96 in
Visibility 10.0 miles
Clouds Scattered Clouds 4200 ft
Mostly Cloudy 4900 ft
Mostly Cloudy 10000 ft
Overcast 25000 ft
Heat Index 71 °F
Dew Point 67 °F
Humidity 85%
Rainfall 0.00 in
Snow Depth Not available.
6:30 AM 8:54 PM
Waxing Crescent, 21% visible
METAR KFFO 271258Z 00000KT 10SM -SHRA SCT042 BKN049 BKN100 OVC250 23/20 A2996 RMK AO2A SLP143 P0000 T02250198
Pressure 29.96 in
Visibility 10.0 miles
Clouds Scattered Clouds 4200 ft
Mostly Cloudy 4900 ft
Mostly Cloudy 10000 ft
Overcast 25000 ft
Heat Index 71 °F
Dew Point 67 °F
Humidity 85%
Rainfall 0.00 in
Snow Depth Not available.
6:30 AM 8:54 PM
Waxing Crescent, 21% visible
METAR KFFO 271258Z 00000KT 10SM -SHRA SCT042 BKN049 BKN100 OVC250 23/20 A2996 RMK AO2A SLP143 P0000 T02250198

Get Severe Weather Alerts

Thanks for signing up!

Be on the lookout for a verification email in your inbox.

You'll start receiving the daily forecast at 6 AM.

×

10-Day Weather Forecast

Almanac

Astronomy

Jul. 27, 2017 Rise Set
Actual Time
Civil Twilight
Nautical Twilight
Astronomical Twilight
Moon
Length of Visible Light
Length of Day
Tomorrow will be .
, % of the Moon is Illuminated

Today's Extremes

State Highs State Lows

Community

WunderPhotos

Category 6

Welcome to Category 6. This is the collective home for Weather Underground's featured writeups by Dr. Jeff Masters (right), Bob Henson (left), Chris Burt, and other regular contributors.

Nearby

Air Quality

  Air Quality AQ Index Pollutant
Not available.

Snow Depth

Station Depth Elevation

Earthquake Activity

City Distance Mag. Time & Date
Minimum magnitude displayed is 2.5.

Coastal Water Temperatures

Place Temperature

Stations

Nearby Weather Stations

Station Location Temp. Windchill Dew Point Humidity Wind Precip. Elev Updated Type
                   

Watches & Warnings

There are currently no watches in effect.